Time;durP1;ratioP1;P1;durP2;ratioP2;P2;SDS_P1;SDS_P2;PMS_P1;PMS_P2;Temp;Humidity;BMP_temperature;BMP_pressure;BME280_temperature;BME280_humidity;BME280_pressure;Samples;Min_cycle;Max_cycle;Signal;HPM_P1;HPM_P2
2024/04/08 00:01:58;;;;;;;5.70;3.53;;;;;;;;;;5095698;27;21000;-80
2024/04/08 00:04:24;;;;;;;5.27;3.27;;;;;;;;;;5081218;28;20674;-77
2024/04/08 00:06:51;;;;;;;9.10;3.67;;;;;;;;;;5087958;28;20613;-78
2024/04/08 00:09:17;;;;;;;10.10;4.10;;;;;;;;;;5096553;28;21021;-77
2024/04/08 00:11:44;;;;;;;8.27;3.53;;;;;;;;;;5088918;28;20624;-78
2024/04/08 00:14:11;;;;;;;6.27;4.10;;;;;;;;;;5094638;28;20620;-78
2024/04/08 00:16:38;;;;;;;10.33;3.83;;;;;;;;;;5087215;28;20632;-79
2024/04/08 00:36:09;;;;;;;4.93;3.20;;;;;;;;;;5098384;28;20556;-78
2024/04/08 00:38:35;;;;;;;8.10;4.00;;;;;;;;;;5092178;28;20633;-77
2024/04/08 00:41:03;;;;;;;4.40;3.10;;;;;;;;;;5092595;28;20690;-77
2024/04/08 00:43:30;;;;;;;3.57;3.00;;;;;;;;;;5092256;28;20628;-79
2024/04/08 00:45:57;;;;;;;7.37;3.37;;;;;;;;;;5089187;28;20996;-78
2024/04/08 00:48:23;;;;;;;6.17;3.53;;;;;;;;;;5094895;28;20602;-78
2024/04/08 00:50:52;;;;;;;13.67;3.63;;;;;;;;;;5095132;28;20623;-78
2024/04/08 00:53:19;;;;;;;9.20;3.10;;;;;;;;;;5087372;28;20986;-79
2024/04/08 00:55:47;;;;;;;12.20;3.50;;;;;;;;;;5082156;28;20599;-78
2024/04/08 00:58:14;;;;;;;8.10;3.13;;;;;;;;;;5088354;28;21259;-79
2024/04/08 01:00:43;;;;;;;3.03;2.80;;;;;;;;;;5089072;28;20649;-79
2024/04/08 01:03:12;;;;;;;10.07;3.57;;;;;;;;;;5090973;28;20616;-78
2024/04/08 01:05:39;;;;;;;8.97;3.70;;;;;;;;;;5079166;28;20669;-79
2024/04/08 01:08:06;;;;;;;11.03;3.23;;;;;;;;;;5098143;28;20673;-77
2024/04/08 01:10:35;;;;;;;6.20;3.47;;;;;;;;;;5093180;28;20595;-78
2024/04/08 01:13:01;;;;;;;8.40;3.10;;;;;;;;;;5085827;28;21241;-78
2024/04/08 01:15:29;;;;;;;16.70;3.60;;;;;;;;;;5079757;28;20617;-77
2024/04/08 01:17:55;;;;;;;7.13;3.43;;;;;;;;;;5077814;28;20642;-81
2024/04/08 01:20:23;;;;;;;7.27;4.10;;;;;;;;;;5080789;28;20629;-79
2024/04/08 01:22:52;;;;;;;10.37;3.37;;;;;;;;;;5098630;28;20597;-79
2024/04/08 01:25:21;;;;;;;11.77;4.23;;;;;;;;;;5087105;28;20661;-79
2024/04/08 01:27:48;;;;;;;14.17;4.80;;;;;;;;;;5086028;28;20641;-78
2024/04/08 01:30:20;;;;;;;6.37;3.47;;;;;;;;;;5082847;28;20621;-79
2024/04/08 01:32:47;;;;;;;9.83;3.90;;;;;;;;;;5091147;28;20625;-79
2024/04/08 01:35:14;;;;;;;8.47;4.37;;;;;;;;;;5090554;28;20650;-78
2024/04/08 01:37:40;;;;;;;9.80;3.80;;;;;;;;;;5072943;28;20617;-79
2024/04/08 01:40:08;;;;;;;8.17;3.80;;;;;;;;;;5086710;28;20626;-78
2024/04/08 01:42:35;;;;;;;6.37;3.90;;;;;;;;;;5093788;28;20625;-79
2024/04/08 01:45:02;;;;;;;9.70;3.23;;;;;;;;;;5092751;28;20659;-79
2024/04/08 01:47:29;;;;;;;6.90;3.40;;;;;;;;;;5088322;28;20859;-78
2024/04/08 01:49:56;;;;;;;23.90;5.23;;;;;;;;;;5090996;28;20625;-78
2024/04/08 01:52:22;;;;;;;27.17;5.30;;;;;;;;;;5088980;28;20621;-78
2024/04/08 01:54:50;;;;;;;15.00;3.30;;;;;;;;;;5088758;28;20702;-79
2024/04/08 01:57:16;;;;;;;9.13;3.30;;;;;;;;;;5082797;28;20981;-79
2024/04/08 01:59:45;;;;;;;7.77;3.87;;;;;;;;;;5087072;28;20625;-79
2024/04/08 02:02:11;;;;;;;7.50;3.67;;;;;;;;;;5082273;28;20617;-78
2024/04/08 02:04:38;;;;;;;9.73;3.37;;;;;;;;;;5088235;28;20660;-79
2024/04/08 02:07:05;;;;;;;8.47;3.37;;;;;;;;;;5090961;28;20931;-78
2024/04/08 02:09:32;;;;;;;9.77;3.50;;;;;;;;;;5088010;28;20625;-78
2024/04/08 02:11:58;;;;;;;3.77;3.27;;;;;;;;;;5099149;28;20657;-78
2024/04/08 02:14:25;;;;;;;4.70;2.80;;;;;;;;;;5094649;28;21019;-79
2024/04/08 02:16:58;;;;;;;10.47;3.53;;;;;;;;;;5095906;28;21419;-78
2024/04/08 02:19:26;;;;;;;11.63;3.60;;;;;;;;;;5084813;28;20639;-78
2024/04/08 02:21:52;;;;;;;8.20;3.67;;;;;;;;;;5094091;28;20672;-78
2024/04/08 02:24:19;;;;;;;6.80;3.60;;;;;;;;;;5088682;28;20668;-78
2024/04/08 02:26:45;;;;;;;10.13;3.83;;;;;;;;;;5094513;28;20624;-78
2024/04/08 02:29:13;;;;;;;5.20;3.47;;;;;;;;;;5084342;28;20641;-77
2024/04/08 02:31:38;;;;;;;13.67;3.50;;;;;;;;;;5100216;28;20609;-78
2024/04/08 02:34:07;;;;;;;6.20;2.90;;;;;;;;;;5091696;28;21015;-79
2024/04/08 02:36:33;;;;;;;5.57;3.67;;;;;;;;;;5096276;28;20635;-78
2024/04/08 02:39:00;;;;;;;6.13;3.40;;;;;;;;;;5096832;28;20625;-78
2024/04/08 02:41:26;;;;;;;7.67;3.23;;;;;;;;;;5089743;28;20992;-77
2024/04/08 02:43:53;;;;;;;12.13;4.50;;;;;;;;;;5078794;28;20646;-78
2024/04/08 02:46:19;;;;;;;8.80;3.90;;;;;;;;;;5093973;28;21391;-78
2024/04/08 02:48:46;;;;;;;12.47;3.10;;;;;;;;;;5089197;28;20648;-79
2024/04/08 02:51:14;;;;;;;13.47;3.33;;;;;;;;;;5087536;28;21205;-78
2024/04/08 02:53:41;;;;;;;6.97;3.73;;;;;;;;;;5083031;28;20715;-79
2024/04/08 02:56:07;;;;;;;7.83;3.30;;;;;;;;;;5082959;28;20613;-80
2024/04/08 02:58:34;;;;;;;9.70;3.90;;;;;;;;;;5090546;28;20629;-78
2024/04/08 03:01:01;;;;;;;11.27;4.00;;;;;;;;;;5085036;28;21215;-77
2024/04/08 03:03:28;;;;;;;7.03;4.00;;;;;;;;;;5081232;28;20621;-78
2024/04/08 03:05:54;;;;;;;6.33;3.60;;;;;;;;;;5091182;28;20644;-78
2024/04/08 03:08:23;;;;;;;10.07;3.00;;;;;;;;;;5089493;28;20626;-79
2024/04/08 03:10:56;;;;;;;6.37;3.77;;;;;;;;;;5084950;28;21254;-78
2024/04/08 03:13:23;;;;;;;9.33;3.53;;;;;;;;;;5088782;28;21262;-78
2024/04/08 03:15:52;;;;;;;4.13;3.37;;;;;;;;;;5095347;28;20640;-78
2024/04/08 03:18:19;;;;;;;12.30;4.63;;;;;;;;;;5087528;28;20800;-78
2024/04/08 03:20:52;;;;;;;5.10;3.00;;;;;;;;;;5094085;28;20628;-78
2024/04/08 03:23:19;;;;;;;7.63;3.13;;;;;;;;;;5071628;28;20836;-78
2024/04/08 03:25:47;;;;;;;12.40;3.67;;;;;;;;;;5093921;28;20802;-77
2024/04/08 03:28:14;;;;;;;6.90;3.00;;;;;;;;;;5093293;28;20641;-77
2024/04/08 03:30:40;;;;;;;5.47;2.90;;;;;;;;;;5092815;28;20608;-78
2024/04/08 03:33:08;;;;;;;11.27;3.03;;;;;;;;;;5093681;28;20703;-78
2024/04/08 03:35:34;;;;;;;13.50;3.80;;;;;;;;;;5087588;28;20597;-79
2024/04/08 03:38:03;;;;;;;6.37;3.37;;;;;;;;;;5085604;28;20698;-79
2024/04/08 03:40:30;;;;;;;9.00;4.00;;;;;;;;;;5090855;28;20783;-77
2024/04/08 03:42:59;;;;;;;7.10;3.20;;;;;;;;;;5082318;28;20624;-78
2024/04/08 03:45:26;;;;;;;8.93;3.47;;;;;;;;;;5083983;28;21386;-78
2024/04/08 03:47:52;;;;;;;9.50;3.87;;;;;;;;;;5085325;28;20989;-78
2024/04/08 03:50:20;;;;;;;4.80;3.70;;;;;;;;;;5084251;28;21214;-78
2024/04/08 03:52:46;;;;;;;7.27;3.30;;;;;;;;;;5080434;28;20624;-78
2024/04/08 03:55:14;;;;;;;5.90;3.87;;;;;;;;;;5087699;28;20644;-78
2024/04/08 03:57:41;;;;;;;6.97;2.83;;;;;;;;;;5083675;28;21438;-78
2024/04/08 04:00:10;;;;;;;15.70;3.53;;;;;;;;;;5097337;28;21059;-78
2024/04/08 04:02:38;;;;;;;5.60;3.20;;;;;;;;;;5085422;28;20628;-78
2024/04/08 04:05:06;;;;;;;11.10;3.53;;;;;;;;;;5084676;28;20660;-78
2024/04/08 04:07:33;;;;;;;9.50;3.60;;;;;;;;;;5084967;28;20658;-78
2024/04/08 04:10:04;;;;;;;16.67;4.10;;;;;;;;;;5084347;28;20888;-78
2024/04/08 04:12:33;;;;;;;18.53;4.77;;;;;;;;;;5083184;28;20625;-78
2024/04/08 04:15:00;;;;;;;7.60;3.17;;;;;;;;;;5077354;28;20628;-78
2024/04/08 04:17:28;;;;;;;8.13;3.03;;;;;;;;;;5084104;28;20591;-78
2024/04/08 04:19:55;;;;;;;14.50;4.00;;;;;;;;;;5078127;28;21009;-78
2024/04/08 04:22:22;;;;;;;7.90;3.60;;;;;;;;;;5084174;28;21248;-78
2024/04/08 04:24:49;;;;;;;7.37;3.93;;;;;;;;;;5084238;28;20686;-78
2024/04/08 04:27:15;;;;;;;7.10;3.87;;;;;;;;;;5086414;28;20617;-78
2024/04/08 04:29:43;;;;;;;7.83;3.70;;;;;;;;;;5085061;28;20625;-78
2024/04/08 04:32:09;;;;;;;8.90;3.23;;;;;;;;;;5083089;28;21247;-78
2024/04/08 04:34:38;;;;;;;14.57;4.10;;;;;;;;;;5084205;28;20693;-78
2024/04/08 04:37:06;;;;;;;12.10;3.53;;;;;;;;;;5086764;28;20714;-79
2024/04/08 04:39:34;;;;;;;26.13;4.17;;;;;;;;;;5085284;28;20624;-78
2024/04/08 04:42:00;;;;;;;9.00;4.00;;;;;;;;;;5083734;28;20620;-78
2024/04/08 04:44:28;;;;;;;8.00;3.10;;;;;;;;;;5084099;28;20621;-78
2024/04/08 04:46:54;;;;;;;10.33;3.70;;;;;;;;;;5085672;28;21037;-79
2024/04/08 04:49:21;;;;;;;14.03;3.90;;;;;;;;;;5082812;28;20625;-77
2024/04/08 04:51:49;;;;;;;8.87;3.93;;;;;;;;;;5084186;28;20732;-77
2024/04/08 04:54:18;;;;;;;9.40;4.20;;;;;;;;;;5083779;28;20620;-78
2024/04/08 04:56:44;;;;;;;8.13;3.90;;;;;;;;;;5077727;28;20618;-79
2024/04/08 04:59:12;;;;;;;8.93;4.17;;;;;;;;;;5083198;28;20616;-78
2024/04/08 05:01:38;;;;;;;10.47;3.63;;;;;;;;;;5085517;28;20717;-77
2024/04/08 05:04:06;;;;;;;8.27;4.10;;;;;;;;;;5088069;28;20629;-78
2024/04/08 05:06:32;;;;;;;6.70;3.93;;;;;;;;;;5084469;28;21293;-78
2024/04/08 05:09:04;;;;;;;16.60;4.77;;;;;;;;;;5079306;28;20659;-78
2024/04/08 05:11:30;;;;;;;8.53;4.27;;;;;;;;;;5079992;28;21024;-77
2024/04/08 05:13:57;;;;;;;5.63;5.00;;;;;;;;;;5086505;28;20621;-77
2024/04/08 05:16:27;;;;;;;11.90;3.63;;;;;;;;;;5079865;28;20652;-79
2024/04/08 05:18:54;;;;;;;8.27;3.57;;;;;;;;;;5091716;28;21220;-79
2024/04/08 05:21:21;;;;;;;10.37;3.90;;;;;;;;;;5094929;28;21002;-77
2024/04/08 05:23:49;;;;;;;17.63;4.53;;;;;;;;;;5078771;28;20617;-80
2024/04/08 05:26:17;;;;;;;9.97;3.83;;;;;;;;;;5088312;28;20630;-79
2024/04/08 05:28:44;;;;;;;30.57;4.77;;;;;;;;;;5074817;28;20618;-76
2024/04/08 05:31:13;;;;;;;6.50;4.23;;;;;;;;;;5086552;28;20771;-76
2024/04/08 05:33:41;;;;;;;7.83;4.37;;;;;;;;;;5087604;28;20955;-77
2024/04/08 05:36:07;;;;;;;13.63;4.30;;;;;;;;;;5093043;28;20624;-77
2024/04/08 05:38:34;;;;;;;20.87;4.67;;;;;;;;;;5083265;28;20628;-76
2024/04/08 05:41:01;;;;;;;9.85;3.55;;;;;;;;;;5083564;28;20760;-76
2024/04/08 05:43:31;;;;;;;6.57;4.00;;;;;;;;;;5093513;28;20194;-76
2024/04/08 05:45:57;;;;;;;25.43;5.80;;;;;;;;;;5087217;28;20802;-76
2024/04/08 05:48:24;;;;;;;18.67;6.27;;;;;;;;;;5084214;28;20633;-77
2024/04/08 05:50:51;;;;;;;8.97;3.93;;;;;;;;;;5096387;28;20626;-76
2024/04/08 05:53:18;;;;;;;12.83;4.70;;;;;;;;;;5080303;28;20934;-77
2024/04/08 05:55:45;;;;;;;16.80;4.17;;;;;;;;;;5083464;28;20617;-77
2024/04/08 05:58:12;;;;;;;10.17;3.50;;;;;;;;;;5093195;28;21263;-77
2024/04/08 06:00:40;;;;;;;12.63;4.40;;;;;;;;;;5081743;28;20652;-77
2024/04/08 06:03:07;;;;;;;5.13;3.37;;;;;;;;;;5091836;28;21257;-77
2024/04/08 06:05:34;;;;;;;16.77;4.50;;;;;;;;;;5096870;28;20671;-77
2024/04/08 06:08:02;;;;;;;12.47;4.27;;;;;;;;;;5093036;28;20621;-76
2024/04/08 06:10:31;;;;;;;12.47;4.67;;;;;;;;;;5097816;28;20695;-76
2024/04/08 06:12:59;;;;;;;8.13;4.03;;;;;;;;;;5090161;28;20620;-75
2024/04/08 06:15:26;;;;;;;7.47;4.50;;;;;;;;;;5080627;28;20621;-78
2024/04/08 06:17:55;;;;;;;9.40;4.30;;;;;;;;;;5087479;28;20599;-76
2024/04/08 06:20:21;;;;;;;13.30;5.10;;;;;;;;;;5093666;28;20628;-78
2024/04/08 06:22:48;;;;;;;7.50;4.67;;;;;;;;;;5091717;28;20612;-76
2024/04/08 06:25:15;;;;;;;15.13;4.20;;;;;;;;;;5092613;28;21217;-76
2024/04/08 06:27:42;;;;;;;21.87;9.40;;;;;;;;;;5082520;28;20669;-77
2024/04/08 06:30:09;;;;;;;17.33;4.97;;;;;;;;;;5091607;28;20655;-75
2024/04/08 06:32:36;;;;;;;9.63;4.30;;;;;;;;;;5097748;28;20625;-77
2024/04/08 06:35:04;;;;;;;15.60;4.63;;;;;;;;;;5094059;28;21146;-76
2024/04/08 06:37:32;;;;;;;14.70;5.10;;;;;;;;;;5093301;28;20693;-76
2024/04/08 06:39:58;;;;;;;14.20;5.13;;;;;;;;;;5088029;28;20636;-77
2024/04/08 06:42:25;;;;;;;9.87;4.80;;;;;;;;;;5088057;28;21022;-76
2024/04/08 06:44:52;;;;;;;14.43;4.47;;;;;;;;;;5087217;28;20596;-76
2024/04/08 06:47:27;;;;;;;15.83;4.50;;;;;;;;;;5083694;28;20672;-76
2024/04/08 06:49:54;;;;;;;10.73;4.03;;;;;;;;;;5086991;28;20698;-77
2024/04/08 06:52:24;;;;;;;10.80;3.83;;;;;;;;;;5094749;28;20632;-77
2024/04/08 06:54:50;;;;;;;7.47;4.10;;;;;;;;;;5091519;28;20781;-78
2024/04/08 06:57:18;;;;;;;11.10;4.50;;;;;;;;;;5081003;28;21174;-77
2024/04/08 06:59:45;;;;;;;14.97;4.97;;;;;;;;;;5087476;28;21247;-78
2024/04/08 07:02:12;;;;;;;9.50;4.70;;;;;;;;;;5092265;28;20628;-77
2024/04/08 07:04:38;;;;;;;13.97;5.40;;;;;;;;;;5081062;28;20867;-76
2024/04/08 07:07:06;;;;;;;14.70;4.93;;;;;;;;;;5083684;28;20657;-77
2024/04/08 07:09:33;;;;;;;12.63;4.97;;;;;;;;;;5090499;28;20615;-76
2024/04/08 07:12:02;;;;;;;9.20;4.27;;;;;;;;;;5084153;28;20625;-76
2024/04/08 07:14:28;;;;;;;7.37;4.60;;;;;;;;;;5079599;28;20622;-76
2024/04/08 07:16:55;;;;;;;11.13;5.20;;;;;;;;;;5078703;28;20667;-77
2024/04/08 07:19:22;;;;;;;5.87;5.30;;;;;;;;;;5081999;28;20643;-75
2024/04/08 07:21:49;;;;;;;10.50;5.60;;;;;;;;;;5087341;28;20711;-76
2024/04/08 07:24:16;;;;;;;7.10;5.23;;;;;;;;;;5093513;28;21237;-76
2024/04/08 07:26:45;;;;;;;13.80;6.20;;;;;;;;;;5097316;28;20655;-77
2024/04/08 07:29:12;;;;;;;10.83;6.20;;;;;;;;;;5089206;28;20644;-76
2024/04/08 07:31:39;;;;;;;9.90;7.43;;;;;;;;;;5072514;28;21196;-77
2024/04/08 07:34:05;;;;;;;9.20;7.60;;;;;;;;;;5096648;28;20616;-75
2024/04/08 07:36:33;;;;;;;16.87;7.73;;;;;;;;;;5081401;28;20616;-76
2024/04/08 07:38:59;;;;;;;9.10;7.33;;;;;;;;;;5075405;28;20626;-76
2024/04/08 07:41:26;;;;;;;10.53;8.30;;;;;;;;;;5081808;28;20628;-76
2024/04/08 07:43:54;;;;;;;14.17;8.57;;;;;;;;;;5081762;28;20630;-77
2024/04/08 07:46:21;;;;;;;8.60;7.90;;;;;;;;;;5075607;28;21322;-77
2024/04/08 07:48:48;;;;;;;10.17;9.07;;;;;;;;;;5086533;28;21320;-76
2024/04/08 07:51:15;;;;;;;16.87;9.63;;;;;;;;;;5092428;28;21193;-76
2024/04/08 07:53:41;;;;;;;12.93;9.50;;;;;;;;;;5076063;28;20638;-77
2024/04/08 07:56:09;;;;;;;13.17;11.03;;;;;;;;;;5083661;28;20624;-76
2024/04/08 07:58:35;;;;;;;11.20;10.40;;;;;;;;;;5090117;28;20613;-77
2024/04/08 08:01:04;;;;;;;11.90;10.70;;;;;;;;;;5085007;28;20660;-77
2024/04/08 08:03:31;;;;;;;11.97;10.80;;;;;;;;;;5088251;28;21279;-76
2024/04/08 08:05:58;;;;;;;12.83;11.47;;;;;;;;;;5091628;28;21188;-76
2024/04/08 08:08:25;;;;;;;13.10;11.83;;;;;;;;;;5084036;28;20613;-76
2024/04/08 08:10:52;;;;;;;12.17;11.33;;;;;;;;;;5091269;28;20636;-76
2024/04/08 08:13:20;;;;;;;12.80;11.90;;;;;;;;;;5096482;28;20627;-76
2024/04/08 08:15:53;;;;;;;13.77;12.70;;;;;;;;;;5083162;28;21193;-76
2024/04/08 08:18:22;;;;;;;14.93;13.63;;;;;;;;;;5088271;28;21317;-76
2024/04/08 08:20:49;;;;;;;14.47;13.33;;;;;;;;;;5090171;28;20617;-76
2024/04/08 08:23:17;;;;;;;14.53;13.07;;;;;;;;;;5098241;28;20624;-76
2024/04/08 08:25:46;;;;;;;14.33;13.33;;;;;;;;;;5086681;28;20693;-76
2024/04/08 08:28:15;;;;;;;14.80;13.50;;;;;;;;;;5093227;28;20647;-77
2024/04/08 08:30:43;;;;;;;18.60;14.90;;;;;;;;;;5084188;28;20637;-76
2024/04/08 08:33:10;;;;;;;16.40;14.67;;;;;;;;;;5088678;28;21382;-76
2024/04/08 08:35:39;;;;;;;15.30;14.13;;;;;;;;;;5100254;28;20635;-77
2024/04/08 08:38:06;;;;;;;15.00;14.00;;;;;;;;;;5086126;28;21240;-76
2024/04/08 08:40:38;;;;;;;15.97;14.77;;;;;;;;;;5082815;28;20640;-77
2024/04/08 08:43:05;;;;;;;15.70;14.60;;;;;;;;;;5072981;28;20632;-76
2024/04/08 08:45:33;;;;;;;15.60;14.47;;;;;;;;;;5086948;28;21255;-76
2024/04/08 08:47:59;;;;;;;16.23;14.93;;;;;;;;;;5091725;28;20667;-76
2024/04/08 08:50:27;;;;;;;15.67;14.50;;;;;;;;;;5089499;28;20634;-77
2024/04/08 08:52:54;;;;;;;16.33;15.20;;;;;;;;;;5083134;28;21167;-76
2024/04/08 08:55:22;;;;;;;17.27;15.63;;;;;;;;;;5081930;28;20624;-76
2024/04/08 08:57:49;;;;;;;18.13;16.40;;;;;;;;;;5086871;28;20689;-78
2024/04/08 09:00:16;;;;;;;17.20;15.70;;;;;;;;;;5085098;28;20648;-76
2024/04/08 09:02:43;;;;;;;17.30;15.17;;;;;;;;;;5099642;28;20693;-76
2024/04/08 09:05:11;;;;;;;17.10;15.40;;;;;;;;;;5096564;28;20624;-76
2024/04/08 09:07:39;;;;;;;16.30;15.17;;;;;;;;;;5083316;28;21062;-77
2024/04/08 09:10:08;;;;;;;17.37;15.93;;;;;;;;;;5082881;28;20625;-76
2024/04/08 09:12:35;;;;;;;17.63;15.90;;;;;;;;;;5081751;28;20622;-76
2024/04/08 09:15:03;;;;;;;17.30;16.10;;;;;;;;;;5094931;28;20624;-76
2024/04/08 09:17:30;;;;;;;17.10;15.77;;;;;;;;;;5076336;28;20991;-77
2024/04/08 09:19:57;;;;;;;17.20;15.80;;;;;;;;;;5077224;28;20638;-77
2024/04/08 09:22:25;;;;;;;17.47;16.00;;;;;;;;;;5084858;28;20694;-77
2024/04/08 09:24:52;;;;;;;18.03;16.40;;;;;;;;;;5088569;28;20623;-76
2024/04/08 09:27:20;;;;;;;17.13;15.93;;;;;;;;;;5088121;28;21325;-75
2024/04/08 09:29:47;;;;;;;17.00;16.10;;;;;;;;;;5082888;28;20678;-76
2024/04/08 09:32:14;;;;;;;19.03;16.70;;;;;;;;;;5085261;28;20707;-76
2024/04/08 09:34:42;;;;;;;18.30;16.90;;;;;;;;;;5077052;28;20636;-76
2024/04/08 09:37:12;;;;;;;18.53;17.10;;;;;;;;;;5089594;28;20608;-76
2024/04/08 09:39:40;;;;;;;18.53;16.93;;;;;;;;;;5094696;28;20642;-76
2024/04/08 09:42:08;;;;;;;18.83;17.10;;;;;;;;;;5080866;28;20627;-76
2024/04/08 09:44:37;;;;;;;17.43;16.33;;;;;;;;;;5082894;28;20625;-76
2024/04/08 09:47:04;;;;;;;17.50;16.50;;;;;;;;;;5093606;28;20664;-76
2024/04/08 09:49:31;;;;;;;18.30;17.10;;;;;;;;;;5092148;28;20620;-78
2024/04/08 09:52:00;;;;;;;18.10;16.73;;;;;;;;;;5069602;28;20676;-77
2024/04/08 09:54:27;;;;;;;18.60;16.77;;;;;;;;;;5093339;28;20621;-76
2024/04/08 09:56:55;;;;;;;18.97;17.13;;;;;;;;;;5081845;28;20769;-76
2024/04/08 09:59:25;;;;;;;18.10;16.80;;;;;;;;;;5080032;28;20617;-76
2024/04/08 10:01:53;;;;;;;23.60;18.00;;;;;;;;;;5081908;28;20661;-76
2024/04/08 10:04:21;;;;;;;18.53;17.27;;;;;;;;;;5078747;28;21036;-77
2024/04/08 10:06:49;;;;;;;18.23;16.60;;;;;;;;;;5076651;28;20626;-76
2024/04/08 10:09:16;;;;;;;18.33;16.30;;;;;;;;;;5082970;28;20620;-77
2024/04/08 10:11:44;;;;;;;17.40;15.80;;;;;;;;;;5080987;28;20940;-76
2024/04/08 10:14:17;;;;;;;18.40;16.53;;;;;;;;;;5082741;28;20605;-77
2024/04/08 10:16:44;;;;;;;17.63;16.30;;;;;;;;;;5080241;28;21331;-76
2024/04/08 10:19:13;;;;;;;18.13;16.30;;;;;;;;;;5079429;28;21253;-77
2024/04/08 10:21:40;;;;;;;17.30;16.10;;;;;;;;;;5085323;28;20797;-76
2024/04/08 10:24:07;;;;;;;17.80;16.47;;;;;;;;;;5083116;28;20702;-77
2024/04/08 10:26:34;;;;;;;19.07;17.77;;;;;;;;;;5077520;28;20999;-75
2024/04/08 10:29:02;;;;;;;18.13;16.70;;;;;;;;;;5080726;28;20721;-77
2024/04/08 10:31:29;;;;;;;17.90;16.60;;;;;;;;;;5075856;28;20639;-77
2024/04/08 10:33:56;;;;;;;18.37;16.90;;;;;;;;;;5087850;28;20839;-78
2024/04/08 10:36:25;;;;;;;18.20;16.80;;;;;;;;;;5084039;28;20624;-78
2024/04/08 10:38:53;;;;;;;18.50;16.80;;;;;;;;;;5080911;28;20593;-76
2024/04/08 10:41:19;;;;;;;18.47;17.07;;;;;;;;;;5082398;28;20621;-76
2024/04/08 10:43:47;;;;;;;18.10;16.57;;;;;;;;;;5085663;28;20651;-76
2024/04/08 10:46:14;;;;;;;18.30;16.67;;;;;;;;;;5088704;28;20633;-76
2024/04/08 10:48:42;;;;;;;18.33;17.10;;;;;;;;;;5091131;28;20658;-76
2024/04/08 10:51:09;;;;;;;19.07;17.30;;;;;;;;;;5081887;28;21202;-77
2024/04/08 10:53:41;;;;;;;18.77;17.37;;;;;;;;;;5096726;28;20620;-77
2024/04/08 10:56:07;;;;;;;21.53;18.17;;;;;;;;;;5083872;28;21216;-76
2024/04/08 10:58:35;;;;;;;18.27;17.07;;;;;;;;;;5088188;28;20622;-76
2024/04/08 11:01:03;;;;;;;18.70;17.00;;;;;;;;;;5087390;28;20921;-77
2024/04/08 11:03:31;;;;;;;19.20;17.40;;;;;;;;;;5074691;28;20795;-76
2024/04/08 11:05:57;;;;;;;18.77;17.47;;;;;;;;;;5088260;28;20644;-76
2024/04/08 11:08:25;;;;;;;19.77;17.83;;;;;;;;;;5078022;28;20666;-76
2024/04/08 11:10:53;;;;;;;19.73;18.17;;;;;;;;;;5084369;28;21266;-78
2024/04/08 11:13:21;;;;;;;18.63;16.90;;;;;;;;;;5088628;28;20686;-78
2024/04/08 11:15:47;;;;;;;17.87;16.63;;;;;;;;;;5079172;28;20637;-76
2024/04/08 11:18:15;;;;;;;18.70;17.00;;;;;;;;;;5084225;28;20645;-74
2024/04/08 11:20:42;;;;;;;18.03;16.33;;;;;;;;;;5080608;28;21292;-76
2024/04/08 11:23:12;;;;;;;17.87;16.50;;;;;;;;;;5099695;28;20818;-76
2024/04/08 11:25:38;;;;;;;18.47;17.33;;;;;;;;;;5086733;28;20626;-77
2024/04/08 11:28:07;;;;;;;19.33;17.30;;;;;;;;;;5085268;28;20664;-78
2024/04/08 11:30:35;;;;;;;18.03;17.03;;;;;;;;;;5081046;28;21018;-77
2024/04/08 11:33:06;;;;;;;19.17;17.47;;;;;;;;;;5096019;28;20629;-77
2024/04/08 11:35:32;;;;;;;18.43;17.23;;;;;;;;;;5090351;28;20620;-77
2024/04/08 11:38:00;;;;;;;19.17;17.57;;;;;;;;;;5076431;28;20621;-80
2024/04/08 11:40:26;;;;;;;19.20;17.60;;;;;;;;;;5082432;28;20627;-78
2024/04/08 11:42:53;;;;;;;19.50;18.20;;;;;;;;;;5086187;28;20613;-75
2024/04/08 11:45:22;;;;;;;19.23;17.40;;;;;;;;;;5091277;28;20611;-78
2024/04/08 11:47:49;;;;;;;19.20;17.67;;;;;;;;;;5082986;28;20788;-78
2024/04/08 11:50:16;;;;;;;19.67;17.60;;;;;;;;;;5091821;28;20686;-78
2024/04/08 11:52:43;;;;;;;18.97;17.70;;;;;;;;;;5096909;28;20624;-76
2024/04/08 11:55:10;;;;;;;19.73;18.37;;;;;;;;;;5081539;28;20636;-77
2024/04/08 11:57:37;;;;;;;20.97;18.53;;;;;;;;;;5080905;28;20786;-78
2024/04/08 12:00:04;;;;;;;21.03;19.03;;;;;;;;;;5071186;28;20642;-75
2024/04/08 12:02:33;;;;;;;19.73;18.27;;;;;;;;;;5073224;28;21029;-76
2024/04/08 12:04:59;;;;;;;20.27;18.70;;;;;;;;;;5080395;28;21237;-76
2024/04/08 12:07:27;;;;;;;19.97;18.40;;;;;;;;;;5078810;28;20625;-76
2024/04/08 12:09:53;;;;;;;19.70;18.17;;;;;;;;;;5075933;28;21046;-73
2024/04/08 12:12:21;;;;;;;20.10;18.40;;;;;;;;;;5071695;28;20633;-76
2024/04/08 12:14:48;;;;;;;19.97;18.43;;;;;;;;;;5076484;28;20675;-76
2024/04/08 12:17:15;;;;;;;19.53;18.23;;;;;;;;;;5081434;28;20623;-76
2024/04/08 12:19:44;;;;;;;19.90;18.07;;;;;;;;;;5081912;28;21054;-78
2024/04/08 12:22:12;;;;;;;19.67;18.07;;;;;;;;;;5077525;28;20625;-77
2024/04/08 12:24:38;;;;;;;19.27;17.90;;;;;;;;;;5088625;28;20721;-77
2024/04/08 12:27:06;;;;;;;19.30;17.77;;;;;;;;;;5086445;28;20629;-77
2024/04/08 12:29:32;;;;;;;20.00;18.50;;;;;;;;;;5071995;28;20658;-77
2024/04/08 12:31:59;;;;;;;20.43;18.33;;;;;;;;;;5074341;28;20609;-77
2024/04/08 12:34:26;;;;;;;19.43;17.73;;;;;;;;;;5078024;28;20641;-77
2024/04/08 12:36:54;;;;;;;20.03;18.20;;;;;;;;;;5089351;28;20831;-78
2024/04/08 12:39:21;;;;;;;19.53;17.93;;;;;;;;;;5075755;28;21379;-77
2024/04/08 12:41:48;;;;;;;19.73;18.10;;;;;;;;;;5074999;28;20623;-77
2024/04/08 12:44:14;;;;;;;20.47;18.73;;;;;;;;;;5082600;28;20629;-77
2024/04/08 12:46:42;;;;;;;20.60;19.13;;;;;;;;;;5099900;28;21251;-78
2024/04/08 12:49:08;;;;;;;20.50;19.10;;;;;;;;;;5077765;28;20738;-76
2024/04/08 12:51:35;;;;;;;19.90;18.30;;;;;;;;;;5093437;28;20620;-78
2024/04/08 12:54:03;;;;;;;20.07;18.57;;;;;;;;;;5102547;28;20620;-79
2024/04/08 12:56:31;;;;;;;21.20;19.20;;;;;;;;;;5096603;28;20624;-76
2024/04/08 12:58:57;;;;;;;20.20;18.37;;;;;;;;;;5100507;28;20684;-76
2024/04/08 13:01:25;;;;;;;20.27;18.43;;;;;;;;;;5092083;28;20648;-80
2024/04/08 13:03:51;;;;;;;20.43;18.43;;;;;;;;;;5091090;28;20877;-77
2024/04/08 13:06:19;;;;;;;19.70;18.33;;;;;;;;;;5100272;28;20620;-78
2024/04/08 13:08:45;;;;;;;21.10;19.07;;;;;;;;;;5098213;28;20662;-76
2024/04/08 13:11:15;;;;;;;20.13;18.43;;;;;;;;;;5101706;28;20620;-78
2024/04/08 13:13:41;;;;;;;19.33;18.03;;;;;;;;;;5098543;28;20628;-77
2024/04/08 13:16:08;;;;;;;19.30;18.10;;;;;;;;;;5096436;28;21218;-76
2024/04/08 13:18:35;;;;;;;19.50;18.13;;;;;;;;;;5101814;28;20616;-76
2024/04/08 13:21:03;;;;;;;19.57;18.17;;;;;;;;;;5105127;27;20624;-75
2024/04/08 13:23:33;;;;;;;19.40;18.00;;;;;;;;;;5093897;27;20632;-76
2024/04/08 13:26:09;;;;;;;19.17;18.17;;;;;;;;;;5097557;28;20640;-76
2024/04/08 13:28:37;;;;;;;19.67;18.30;;;;;;;;;;5097378;28;20664;-77
2024/04/08 13:31:05;;;;;;;18.40;17.23;;;;;;;;;;5101641;28;20624;-77
2024/04/08 13:33:31;;;;;;;18.97;17.50;;;;;;;;;;5093538;28;20742;-78
2024/04/08 13:35:59;;;;;;;19.10;18.00;;;;;;;;;;5099510;27;20687;-77
2024/04/08 13:38:25;;;;;;;19.80;18.30;;;;;;;;;;5105297;27;20617;-77
2024/04/08 13:40:54;;;;;;;19.73;18.33;;;;;;;;;;5105935;27;20620;-77
2024/04/08 13:43:20;;;;;;;20.33;18.67;;;;;;;;;;5102043;27;21074;-78
2024/04/08 13:45:49;;;;;;;19.83;18.40;;;;;;;;;;5095612;27;21202;-77
2024/04/08 13:48:15;;;;;;;20.67;18.63;;;;;;;;;;5101425;28;20652;-78
2024/04/08 13:50:42;;;;;;;18.47;17.47;;;;;;;;;;5101177;28;20615;-77
2024/04/08 13:53:08;;;;;;;22.17;20.07;;;;;;;;;;5101129;28;20628;-77
2024/04/08 13:55:36;;;;;;;29.63;18.67;;;;;;;;;;5100682;28;20628;-77
2024/04/08 13:58:02;;;;;;;19.77;18.50;;;;;;;;;;5096944;28;20620;-77
2024/04/08 14:00:30;;;;;;;19.33;17.90;;;;;;;;;;5092767;28;20685;-77
2024/04/08 14:02:57;;;;;;;19.00;17.50;;;;;;;;;;5101091;28;21239;-77
2024/04/08 14:05:25;;;;;;;19.90;18.23;;;;;;;;;;5102189;27;20650;-78
2024/04/08 14:07:51;;;;;;;19.03;17.70;;;;;;;;;;5106305;27;20628;-78
2024/04/08 14:10:19;;;;;;;18.43;17.23;;;;;;;;;;5100834;27;20683;-77
2024/04/08 14:12:45;;;;;;;18.37;17.10;;;;;;;;;;5108608;27;20624;-77
2024/04/08 14:15:12;;;;;;;20.73;18.73;;;;;;;;;;5113498;27;20631;-77
2024/04/08 14:17:39;;;;;;;19.83;18.20;;;;;;;;;;5104985;27;20661;-77
2024/04/08 14:20:11;;;;;;;19.30;17.97;;;;;;;;;;5117109;27;20615;-77
2024/04/08 14:22:37;;;;;;;19.73;18.17;;;;;;;;;;5115707;27;20726;-77
2024/04/08 14:25:05;;;;;;;19.60;18.00;;;;;;;;;;5110399;27;20705;-76
2024/04/08 14:27:31;;;;;;;20.77;19.10;;;;;;;;;;5108617;27;20821;-78
2024/04/08 14:29:59;;;;;;;20.90;19.13;;;;;;;;;;5101409;27;21010;-75
2024/04/08 14:32:25;;;;;;;19.73;18.50;;;;;;;;;;5103804;27;20628;-77
2024/04/08 14:34:53;;;;;;;21.03;19.20;;;;;;;;;;5113083;27;20624;-77
2024/04/08 14:37:20;;;;;;;20.00;18.60;;;;;;;;;;5102080;27;21001;-77
2024/04/08 14:39:48;;;;;;;20.97;19.07;;;;;;;;;;5110294;27;20626;-77
2024/04/08 14:42:14;;;;;;;21.90;19.60;;;;;;;;;;5100521;28;20673;-77
2024/04/08 14:44:41;;;;;;;21.10;18.93;;;;;;;;;;5101764;27;20827;-77
2024/04/08 14:47:08;;;;;;;22.27;19.90;;;;;;;;;;5100624;28;20629;-78